sensor_id;sensor_type;location;lat;lon;timestamp;pressure;altitude;pressure_sealevel;temperature;humidity
66703;BME280;60933;46.398;-63.798;2023-11-21T00:01:55;102277.22;;;-1.85;63.96
66703;BME280;60933;46.398;-63.798;2023-11-21T00:04:22;102278.97;;;-1.84;63.42
66703;BME280;60933;46.398;-63.798;2023-11-21T00:06:48;102278.78;;;-1.87;63.65
66703;BME280;60933;46.398;-63.798;2023-11-21T00:09:15;102275.34;;;-1.89;63.55
66703;BME280;60933;46.398;-63.798;2023-11-21T00:11:41;102289.63;;;-1.90;63.98
66703;BME280;60933;46.398;-63.798;2023-11-21T00:14:08;102286.16;;;-1.92;64.35
66703;BME280;60933;46.398;-63.798;2023-11-21T00:16:34;102290.28;;;-1.94;64.42
66703;BME280;60933;46.398;-63.798;2023-11-21T00:19:00;102297.09;;;-1.93;64.14
66703;BME280;60933;46.398;-63.798;2023-11-21T00:21:26;102291.06;;;-1.95;64.69
66703;BME280;60933;46.398;-63.798;2023-11-21T00:23:52;102303.66;;;-1.97;65.52
66703;BME280;60933;46.398;-63.798;2023-11-21T00:26:18;102301.13;;;-1.97;65.48
66703;BME280;60933;46.398;-63.798;2023-11-21T00:28:44;102302.75;;;-1.97;64.88
66703;BME280;60933;46.398;-63.798;2023-11-21T00:31:11;102303.47;;;-2.00;65.57
66703;BME280;60933;46.398;-63.798;2023-11-21T00:33:37;102320.41;;;-1.99;65.90
66703;BME280;60933;46.398;-63.798;2023-11-21T00:36:03;102326.44;;;-1.97;66.15
66703;BME280;60933;46.398;-63.798;2023-11-21T00:38:29;102325.47;;;-1.99;66.89
66703;BME280;60933;46.398;-63.798;2023-11-21T00:40:55;102328.16;;;-1.96;67.28
66703;BME280;60933;46.398;-63.798;2023-11-21T00:43:22;102330.53;;;-1.99;67.16
66703;BME280;60933;46.398;-63.798;2023-11-21T00:45:49;102344.16;;;-1.97;68.24
66703;BME280;60933;46.398;-63.798;2023-11-21T00:48:15;102337.34;;;-1.98;68.12
66703;BME280;60933;46.398;-63.798;2023-11-21T00:50:41;102341.63;;;-1.97;67.70
66703;BME280;60933;46.398;-63.798;2023-11-21T00:53:07;102343.34;;;-1.96;67.36
66703;BME280;60933;46.398;-63.798;2023-11-21T00:55:33;102348.50;;;-1.94;67.07
66703;BME280;60933;46.398;-63.798;2023-11-21T00:58:00;102340.97;;;-1.93;67.56
66703;BME280;60933;46.398;-63.798;2023-11-21T01:00:29;102359.56;;;-1.92;67.90
66703;BME280;60933;46.398;-63.798;2023-11-21T01:02:55;102345.25;;;-1.92;67.48
66703;BME280;60933;46.398;-63.798;2023-11-21T01:05:21;102352.13;;;-1.89;65.69
66703;BME280;60933;46.398;-63.798;2023-11-21T01:07:47;102351.34;;;-1.88;65.82
66703;BME280;60933;46.398;-63.798;2023-11-21T01:10:13;102349.66;;;-1.87;66.30
66703;BME280;60933;46.398;-63.798;2023-11-21T01:12:39;102360.69;;;-1.87;66.86
66703;BME280;60933;46.398;-63.798;2023-11-21T01:15:06;102365.03;;;-1.84;64.84
66703;BME280;60933;46.398;-63.798;2023-11-21T01:17:37;102361.72;;;-1.83;64.68
66703;BME280;60933;46.398;-63.798;2023-11-21T01:20:04;102363.44;;;-1.82;64.91
66703;BME280;60933;46.398;-63.798;2023-11-21T01:22:36;102367.56;;;-1.84;64.35
66703;BME280;60933;46.398;-63.798;2023-11-21T01:25:03;102375.31;;;-1.81;63.83
66703;BME280;60933;46.398;-63.798;2023-11-21T01:27:36;102376.34;;;-1.78;61.21
66703;BME280;60933;46.398;-63.798;2023-11-21T01:30:06;102371.34;;;-1.76;62.10
66703;BME280;60933;46.398;-63.798;2023-11-21T01:32:33;102377.28;;;-1.76;61.66
66703;BME280;60933;46.398;-63.798;2023-11-21T01:35:00;102370.50;;;-1.77;61.37
66703;BME280;60933;46.398;-63.798;2023-11-21T01:37:26;102368.13;;;-1.73;60.93
66703;BME280;60933;46.398;-63.798;2023-11-21T01:39:56;102369.00;;;-1.73;60.23
66703;BME280;60933;46.398;-63.798;2023-11-21T01:42:22;102373.19;;;-1.73;60.27
66703;BME280;60933;46.398;-63.798;2023-11-21T01:44:49;102374.06;;;-1.73;59.23
66703;BME280;60933;46.398;-63.798;2023-11-21T01:47:14;102383.47;;;-1.70;57.38
66703;BME280;60933;46.398;-63.798;2023-11-21T01:49:44;102373.25;;;-1.72;57.46
66703;BME280;60933;46.398;-63.798;2023-11-21T01:52:11;102380.16;;;-1.69;56.35
66703;BME280;60933;46.398;-63.798;2023-11-21T01:54:38;102386.94;;;-1.68;56.43
66703;BME280;60933;46.398;-63.798;2023-11-21T01:57:05;102394.47;;;-1.70;56.00
66703;BME280;60933;46.398;-63.798;2023-11-21T01:59:36;102399.59;;;-1.68;56.56
66703;BME280;60933;46.398;-63.798;2023-11-21T02:02:04;102405.31;;;-1.72;55.92
66703;BME280;60933;46.398;-63.798;2023-11-21T02:04:32;102410.53;;;-1.69;55.85
66703;BME280;60933;46.398;-63.798;2023-11-21T02:06:59;102407.19;;;-1.68;54.89
66703;BME280;60933;46.398;-63.798;2023-11-21T02:09:26;102412.25;;;-1.68;55.83
66703;BME280;60933;46.398;-63.798;2023-11-21T02:11:53;102420.75;;;-1.68;55.43
66703;BME280;60933;46.398;-63.798;2023-11-21T02:14:20;102422.50;;;-1.67;55.50
66703;BME280;60933;46.398;-63.798;2023-11-21T02:16:50;102413.16;;;-1.68;55.41
66703;BME280;60933;46.398;-63.798;2023-11-21T02:19:21;102425.81;;;-1.68;55.14
66703;BME280;60933;46.398;-63.798;2023-11-21T02:21:59;102418.94;;;-1.70;56.36
66703;BME280;60933;46.398;-63.798;2023-11-21T02:24:29;102424.78;;;-1.71;56.45
66703;BME280;60933;46.398;-63.798;2023-11-21T02:26:54;102434.13;;;-1.70;56.24
66703;BME280;60933;46.398;-63.798;2023-11-21T02:29:21;102437.44;;;-1.71;56.12
66703;BME280;60933;46.398;-63.798;2023-11-21T02:31:55;102445.81;;;-1.72;57.01
66703;BME280;60933;46.398;-63.798;2023-11-21T02:34:22;102446.47;;;-1.77;56.40
66703;BME280;60933;46.398;-63.798;2023-11-21T02:36:50;102448.28;;;-1.74;56.95
66703;BME280;60933;46.398;-63.798;2023-11-21T02:39:17;102442.31;;;-1.75;56.01
66703;BME280;60933;46.398;-63.798;2023-11-21T02:41:44;102447.38;;;-1.75;56.02
66703;BME280;60933;46.398;-63.798;2023-11-21T02:44:10;102448.28;;;-1.74;55.87
66703;BME280;60933;46.398;-63.798;2023-11-21T02:46:36;102452.56;;;-1.73;55.89
66703;BME280;60933;46.398;-63.798;2023-11-21T02:49:03;102444.72;;;-1.78;56.38
66703;BME280;60933;46.398;-63.798;2023-11-21T02:51:32;102454.13;;;-1.75;57.01
66703;BME280;60933;46.398;-63.798;2023-11-21T02:53:59;102457.38;;;-1.78;56.76
66703;BME280;60933;46.398;-63.798;2023-11-21T02:56:26;102448.03;;;-1.79;57.12
66703;BME280;60933;46.398;-63.798;2023-11-21T02:58:54;102458.75;;;-1.83;58.14
66703;BME280;60933;46.398;-63.798;2023-11-21T03:01:21;102455.13;;;-1.88;58.28
66703;BME280;60933;46.398;-63.798;2023-11-21T03:03:46;102458.28;;;-1.92;58.36
66703;BME280;60933;46.398;-63.798;2023-11-21T03:06:20;102463.88;;;-1.98;58.73
66703;BME280;60933;46.398;-63.798;2023-11-21T03:08:46;102455.31;;;-2.00;60.01
66703;BME280;60933;46.398;-63.798;2023-11-21T03:11:13;102460.13;;;-2.04;59.65
66703;BME280;60933;46.398;-63.798;2023-11-21T03:13:40;102465.84;;;-2.09;61.04
66703;BME280;60933;46.398;-63.798;2023-11-21T03:16:10;102466.44;;;-2.13;60.91
66703;BME280;60933;46.398;-63.798;2023-11-21T03:18:38;102477.19;;;-2.17;61.67
66703;BME280;60933;46.398;-63.798;2023-11-21T03:21:08;102479.47;;;-2.21;62.24
66703;BME280;60933;46.398;-63.798;2023-11-21T03:23:35;102486.78;;;-2.26;64.01
66703;BME280;60933;46.398;-63.798;2023-11-21T03:26:02;102495.00;;;-2.30;66.20
66703;BME280;60933;46.398;-63.798;2023-11-21T03:28:29;102504.75;;;-2.36;69.26
66703;BME280;60933;46.398;-63.798;2023-11-21T03:30:56;102513.66;;;-2.43;72.73
66703;BME280;60933;46.398;-63.798;2023-11-21T03:33:22;102518.13;;;-2.54;75.07
66703;BME280;60933;46.398;-63.798;2023-11-21T03:35:48;102519.47;;;-2.59;78.53
66703;BME280;60933;46.398;-63.798;2023-11-21T03:38:15;102517.72;;;-2.60;81.56
66703;BME280;60933;46.398;-63.798;2023-11-21T03:40:42;102523.41;;;-2.64;84.28
66703;BME280;60933;46.398;-63.798;2023-11-21T03:43:08;102536.69;;;-2.68;85.70
66703;BME280;60933;46.398;-63.798;2023-11-21T03:45:34;102537.25;;;-2.73;88.40
66703;BME280;60933;46.398;-63.798;2023-11-21T03:48:00;102535.94;;;-2.81;90.13
66703;BME280;60933;46.398;-63.798;2023-11-21T03:50:29;102542.31;;;-2.88;92.74
66703;BME280;60933;46.398;-63.798;2023-11-21T03:52:55;102534.44;;;-2.92;94.51
66703;BME280;60933;46.398;-63.798;2023-11-21T03:55:21;102545.13;;;-2.96;95.38
66703;BME280;60933;46.398;-63.798;2023-11-21T03:57:47;102542.31;;;-3.01;97.19
66703;BME280;60933;46.398;-63.798;2023-11-21T04:00:12;102541.09;;;-3.08;98.35
66703;BME280;60933;46.398;-63.798;2023-11-21T04:02:39;102538.19;;;-3.14;100.00
66703;BME280;60933;46.398;-63.798;2023-11-21T04:05:06;102538.03;;;-3.17;100.00
66703;BME280;60933;46.398;-63.798;2023-11-21T04:07:32;102541.94;;;-3.22;100.00
66703;BME280;60933;46.398;-63.798;2023-11-21T04:09:59;102544.94;;;-3.28;100.00
66703;BME280;60933;46.398;-63.798;2023-11-21T04:12:25;102551.47;;;-3.31;100.00
66703;BME280;60933;46.398;-63.798;2023-11-21T04:14:51;102554.75;;;-3.32;100.00
66703;BME280;60933;46.398;-63.798;2023-11-21T04:17:20;102559.81;;;-3.32;100.00
66703;BME280;60933;46.398;-63.798;2023-11-21T04:19:46;102558.06;;;-3.34;100.00
66703;BME280;60933;46.398;-63.798;2023-11-21T04:22:13;102570.41;;;-3.38;100.00
66703;BME280;60933;46.398;-63.798;2023-11-21T04:24:38;102579.81;;;-3.36;100.00
66703;BME280;60933;46.398;-63.798;2023-11-21T04:27:05;102589.06;;;-3.36;100.00
66703;BME280;60933;46.398;-63.798;2023-11-21T04:29:30;102596.72;;;-3.35;100.00
66703;BME280;60933;46.398;-63.798;2023-11-21T04:31:56;102592.38;;;-3.37;100.00
66703;BME280;60933;46.398;-63.798;2023-11-21T04:34:23;102603.16;;;-3.40;100.00
66703;BME280;60933;46.398;-63.798;2023-11-21T04:36:49;102608.00;;;-3.43;100.00
66703;BME280;60933;46.398;-63.798;2023-11-21T04:39:16;102588.41;;;-3.47;100.00
66703;BME280;60933;46.398;-63.798;2023-11-21T04:41:42;102588.28;;;-3.48;100.00
66703;BME280;60933;46.398;-63.798;2023-11-21T04:44:08;102585.66;;;-3.50;100.00
66703;BME280;60933;46.398;-63.798;2023-11-21T04:46:34;102570.06;;;-3.58;100.00
66703;BME280;60933;46.398;-63.798;2023-11-21T04:49:00;102607.16;;;-3.57;100.00
66703;BME280;60933;46.398;-63.798;2023-11-21T04:51:26;102578.31;;;-3.60;100.00
66703;BME280;60933;46.398;-63.798;2023-11-21T04:53:53;102573.91;;;-3.63;100.00
66703;BME280;60933;46.398;-63.798;2023-11-21T04:56:19;102562.97;;;-3.63;100.00
66703;BME280;60933;46.398;-63.798;2023-11-21T04:58:45;102556.94;;;-3.66;100.00
66703;BME280;60933;46.398;-63.798;2023-11-21T05:01:11;102556.84;;;-3.67;100.00
66703;BME280;60933;46.398;-63.798;2023-11-21T05:03:37;102571.09;;;-3.68;100.00
66703;BME280;60933;46.398;-63.798;2023-11-21T05:06:04;102562.47;;;-3.71;100.00
66703;BME280;60933;46.398;-63.798;2023-11-21T05:08:31;102566.75;;;-3.70;100.00
66703;BME280;60933;46.398;-63.798;2023-11-21T05:10:57;102570.94;;;-3.71;100.00
66703;BME280;60933;46.398;-63.798;2023-11-21T05:13:23;102562.97;;;-3.77;100.00
66703;BME280;60933;46.398;-63.798;2023-11-21T05:15:54;102558.50;;;-3.81;100.00
66703;BME280;60933;46.398;-63.798;2023-11-21T05:18:22;102564.31;;;-3.82;100.00
66703;BME280;60933;46.398;-63.798;2023-11-21T05:20:49;102561.69;;;-3.84;100.00
66703;BME280;60933;46.398;-63.798;2023-11-21T05:23:15;102558.03;;;-3.89;100.00
66703;BME280;60933;46.398;-63.798;2023-11-21T05:25:41;102560.53;;;-3.89;100.00
66703;BME280;60933;46.398;-63.798;2023-11-21T05:28:08;102562.28;;;-3.88;100.00
66703;BME280;60933;46.398;-63.798;2023-11-21T05:30:34;102560.63;;;-3.87;100.00
66703;BME280;60933;46.398;-63.798;2023-11-21T05:33:00;102574.41;;;-3.82;100.00
66703;BME280;60933;46.398;-63.798;2023-11-21T05:35:26;102576.94;;;-3.82;100.00
66703;BME280;60933;46.398;-63.798;2023-11-21T05:37:52;102573.84;;;-3.78;100.00
66703;BME280;60933;46.398;-63.798;2023-11-21T05:40:18;102575.59;;;-3.77;100.00
66703;BME280;60933;46.398;-63.798;2023-11-21T05:42:44;102583.25;;;-3.75;100.00
66703;BME280;60933;46.398;-63.798;2023-11-21T05:45:10;102597.63;;;-3.74;100.00
66703;BME280;60933;46.398;-63.798;2023-11-21T05:47:41;102596.94;;;-3.72;100.00
66703;BME280;60933;46.398;-63.798;2023-11-21T05:50:12;102602.84;;;-3.71;100.00
66703;BME280;60933;46.398;-63.798;2023-11-21T05:52:44;102612.28;;;-3.69;100.00
66703;BME280;60933;46.398;-63.798;2023-11-21T05:55:11;102608.19;;;-3.67;100.00
66703;BME280;60933;46.398;-63.798;2023-11-21T05:57:38;102608.41;;;-3.63;100.00
66703;BME280;60933;46.398;-63.798;2023-11-21T06:00:06;102608.59;;;-3.60;100.00
66703;BME280;60933;46.398;-63.798;2023-11-21T06:02:59;102609.38;;;-3.61;100.00
66703;BME280;60933;46.398;-63.798;2023-11-21T06:05:26;102617.13;;;-3.58;100.00
66703;BME280;60933;46.398;-63.798;2023-11-21T06:07:53;102613.84;;;-3.57;100.00
66703;BME280;60933;46.398;-63.798;2023-11-21T06:10:23;102618.97;;;-3.56;100.00
66703;BME280;60933;46.398;-63.798;2023-11-21T06:12:52;102619.94;;;-3.54;100.00
66703;BME280;60933;46.398;-63.798;2023-11-21T06:15:19;102632.88;;;-3.49;100.00
66703;BME280;60933;46.398;-63.798;2023-11-21T06:17:46;102633.84;;;-3.47;100.00
66703;BME280;60933;46.398;-63.798;2023-11-21T06:20:17;102638.97;;;-3.45;100.00
66703;BME280;60933;46.398;-63.798;2023-11-21T06:22:46;102640.66;;;-3.46;100.00
66703;BME280;60933;46.398;-63.798;2023-11-21T06:25:13;102639.66;;;-3.48;100.00
66703;BME280;60933;46.398;-63.798;2023-11-21T06:27:44;102641.59;;;-3.44;100.00
66703;BME280;60933;46.398;-63.798;2023-11-21T06:30:11;102641.81;;;-3.41;100.00
66703;BME280;60933;46.398;-63.798;2023-11-21T06:32:38;102639.56;;;-3.36;100.00
66703;BME280;60933;46.398;-63.798;2023-11-21T06:35:05;102643.25;;;-3.31;100.00
66703;BME280;60933;46.398;-63.798;2023-11-21T06:37:32;102638.41;;;-3.28;100.00
66703;BME280;60933;46.398;-63.798;2023-11-21T06:39:59;102653.06;;;-3.22;100.00
66703;BME280;60933;46.398;-63.798;2023-11-21T06:42:26;102633.53;;;-3.25;100.00
66703;BME280;60933;46.398;-63.798;2023-11-21T06:44:53;102656.16;;;-3.13;100.00
66703;BME280;60933;46.398;-63.798;2023-11-21T06:47:20;102658.88;;;-3.10;100.00
66703;BME280;60933;46.398;-63.798;2023-11-21T06:49:46;102656.34;;;-3.10;100.00
66703;BME280;60933;46.398;-63.798;2023-11-21T06:52:16;102650.03;;;-3.03;100.00
66703;BME280;60933;46.398;-63.798;2023-11-21T06:54:42;102654.41;;;-3.00;100.00
66703;BME280;60933;46.398;-63.798;2023-11-21T06:57:08;102649.06;;;-3.05;100.00
66703;BME280;60933;46.398;-63.798;2023-11-21T06:59:34;102668.88;;;-2.98;100.00
66703;BME280;60933;46.398;-63.798;2023-11-21T07:02:00;102669.72;;;-2.97;100.00
66703;BME280;60933;46.398;-63.798;2023-11-21T07:04:26;102667.97;;;-2.98;100.00
66703;BME280;60933;46.398;-63.798;2023-11-21T07:06:55;102674.63;;;-3.00;100.00
66703;BME280;60933;46.398;-63.798;2023-11-21T07:09:21;102672.88;;;-3.02;100.00
66703;BME280;60933;46.398;-63.798;2023-11-21T07:11:51;102679.38;;;-3.05;100.00
66703;BME280;60933;46.398;-63.798;2023-11-21T07:14:17;102680.94;;;-3.07;100.00
66703;BME280;60933;46.398;-63.798;2023-11-21T07:16:45;102683.53;;;-3.06;100.00
66703;BME280;60933;46.398;-63.798;2023-11-21T07:19:12;102684.34;;;-3.07;100.00
66703;BME280;60933;46.398;-63.798;2023-11-21T07:21:39;102681.03;;;-3.06;100.00
66703;BME280;60933;46.398;-63.798;2023-11-21T07:24:06;102678.59;;;-3.04;100.00
66703;BME280;60933;46.398;-63.798;2023-11-21T07:26:33;102679.66;;;-3.00;100.00
66703;BME280;60933;46.398;-63.798;2023-11-21T07:29:01;102671.31;;;-2.99;100.00
66703;BME280;60933;46.398;-63.798;2023-11-21T07:31:28;102678.00;;;-3.00;100.00
66703;BME280;60933;46.398;-63.798;2023-11-21T07:33:55;102675.31;;;-3.03;100.00
66703;BME280;60933;46.398;-63.798;2023-11-21T07:36:24;102682.78;;;-3.05;100.00
66703;BME280;60933;46.398;-63.798;2023-11-21T07:38:51;102682.88;;;-3.03;100.00
66703;BME280;60933;46.398;-63.798;2023-11-21T07:41:17;102679.38;;;-3.05;100.00
66703;BME280;60933;46.398;-63.798;2023-11-21T07:43:44;102684.16;;;-3.10;100.00
66703;BME280;60933;46.398;-63.798;2023-11-21T07:46:12;102683.94;;;-3.13;100.00
66703;BME280;60933;46.398;-63.798;2023-11-21T07:48:39;102695.63;;;-3.15;100.00
66703;BME280;60933;46.398;-63.798;2023-11-21T07:51:05;102692.91;;;-3.18;100.00
66703;BME280;60933;46.398;-63.798;2023-11-21T07:53:32;102695.41;;;-3.18;100.00
66703;BME280;60933;46.398;-63.798;2023-11-21T07:56:03;102696.97;;;-3.20;100.00
66703;BME280;60933;46.398;-63.798;2023-11-21T07:58:29;102715.34;;;-3.23;100.00
66703;BME280;60933;46.398;-63.798;2023-11-21T08:00:56;102687.94;;;-3.30;100.00
66703;BME280;60933;46.398;-63.798;2023-11-21T08:03:22;102691.25;;;-3.31;100.00
66703;BME280;60933;46.398;-63.798;2023-11-21T08:05:49;102696.50;;;-3.28;100.00
66703;BME280;60933;46.398;-63.798;2023-11-21T08:08:15;102706.47;;;-3.29;100.00
66703;BME280;60933;46.398;-63.798;2023-11-21T08:10:44;102703.19;;;-3.28;100.00
66703;BME280;60933;46.398;-63.798;2023-11-21T08:13:26;102703.94;;;-3.29;100.00
66703;BME280;60933;46.398;-63.798;2023-11-21T08:15:56;102703.88;;;-3.31;100.00
66703;BME280;60933;46.398;-63.798;2023-11-21T08:18:27;102715.94;;;-3.27;100.00
66703;BME280;60933;46.398;-63.798;2023-11-21T08:20:54;102723.69;;;-3.24;100.00
66703;BME280;60933;46.398;-63.798;2023-11-21T08:23:20;102713.59;;;-3.24;100.00
66703;BME280;60933;46.398;-63.798;2023-11-21T08:25:51;102726.50;;;-3.19;100.00
66703;BME280;60933;46.398;-63.798;2023-11-21T08:28:17;102731.00;;;-3.15;100.00
66703;BME280;60933;46.398;-63.798;2023-11-21T08:30:43;102732.72;;;-3.14;100.00
66703;BME280;60933;46.398;-63.798;2023-11-21T08:33:10;102733.59;;;-3.13;100.00
66703;BME280;60933;46.398;-63.798;2023-11-21T08:35:37;102745.56;;;-3.11;100.00
66703;BME280;60933;46.398;-63.798;2023-11-21T08:38:04;102739.94;;;-3.07;100.00
66703;BME280;60933;46.398;-63.798;2023-11-21T08:40:30;102737.59;;;-3.04;100.00
66703;BME280;60933;46.398;-63.798;2023-11-21T08:42:56;102741.19;;;-3.00;100.00
66703;BME280;60933;46.398;-63.798;2023-11-21T08:45:25;102731.97;;;-2.99;100.00
66703;BME280;60933;46.398;-63.798;2023-11-21T08:47:53;102727.16;;;-2.95;100.00
66703;BME280;60933;46.398;-63.798;2023-11-21T08:50:19;102726.31;;;-2.95;100.00
66703;BME280;60933;46.398;-63.798;2023-11-21T08:52:46;102724.38;;;-2.99;100.00
66703;BME280;60933;46.398;-63.798;2023-11-21T08:55:12;102730.38;;;-2.97;100.00
66703;BME280;60933;46.398;-63.798;2023-11-21T08:57:39;102736.22;;;-2.98;100.00
66703;BME280;60933;46.398;-63.798;2023-11-21T09:00:07;102740.19;;;-3.02;100.00
66703;BME280;60933;46.398;-63.798;2023-11-21T09:02:40;102749.66;;;-2.99;100.00
66703;BME280;60933;46.398;-63.798;2023-11-21T09:05:13;102760.72;;;-2.97;100.00
66703;BME280;60933;46.398;-63.798;2023-11-21T09:07:41;102747.31;;;-2.96;100.00
66703;BME280;60933;46.398;-63.798;2023-11-21T09:10:07;102762.66;;;-2.93;100.00
66703;BME280;60933;46.398;-63.798;2023-11-21T09:12:36;102753.63;;;-2.90;100.00
66703;BME280;60933;46.398;-63.798;2023-11-21T09:15:06;102768.03;;;-2.89;100.00
66703;BME280;60933;46.398;-63.798;2023-11-21T09:17:33;102767.13;;;-2.89;100.00
66703;BME280;60933;46.398;-63.798;2023-11-21T09:20:00;102769.66;;;-2.89;100.00
66703;BME280;60933;46.398;-63.798;2023-11-21T09:22:26;102765.28;;;-2.92;100.00
66703;BME280;60933;46.398;-63.798;2023-11-21T09:24:55;102779.59;;;-2.92;100.00
66703;BME280;60933;46.398;-63.798;2023-11-21T09:27:23;102775.41;;;-2.92;100.00
66703;BME280;60933;46.398;-63.798;2023-11-21T09:29:51;102781.53;;;-2.88;100.00
66703;BME280;60933;46.398;-63.798;2023-11-21T09:32:18;102787.06;;;-2.94;100.00
66703;BME280;60933;46.398;-63.798;2023-11-21T09:34:45;102776.66;;;-2.98;100.00
66703;BME280;60933;46.398;-63.798;2023-11-21T09:37:11;102791.03;;;-2.97;100.00
66703;BME280;60933;46.398;-63.798;2023-11-21T09:39:37;102798.22;;;-3.04;100.00
66703;BME280;60933;46.398;-63.798;2023-11-21T09:42:20;102799.00;;;-3.05;100.00
66703;BME280;60933;46.398;-63.798;2023-11-21T09:44:57;102803.97;;;-3.06;100.00
66703;BME280;60933;46.398;-63.798;2023-11-21T09:47:27;102808.81;;;-3.09;100.00
66703;BME280;60933;46.398;-63.798;2023-11-21T09:49:54;102815.31;;;-3.13;100.00
66703;BME280;60933;46.398;-63.798;2023-11-21T09:52:25;102816.91;;;-3.15;100.00
66703;BME280;60933;46.398;-63.798;2023-11-21T09:54:53;102826.03;;;-3.17;100.00
66703;BME280;60933;46.398;-63.798;2023-11-21T09:57:23;102802.59;;;-3.28;100.00
66703;BME280;60933;46.398;-63.798;2023-11-21T09:59:53;102814.75;;;-3.22;100.00
66703;BME280;60933;46.398;-63.798;2023-11-21T10:02:28;102813.53;;;-3.27;100.00
66703;BME280;60933;46.398;-63.798;2023-11-21T10:04:56;102821.13;;;-3.27;100.00
66703;BME280;60933;46.398;-63.798;2023-11-21T10:07:23;102836.19;;;-3.29;100.00
66703;BME280;60933;46.398;-63.798;2023-11-21T10:09:51;102820.72;;;-3.34;100.00
66703;BME280;60933;46.398;-63.798;2023-11-21T10:12:17;102832.97;;;-3.40;100.00
66703;BME280;60933;46.398;-63.798;2023-11-21T10:14:48;102831.78;;;-3.45;100.00
66703;BME280;60933;46.398;-63.798;2023-11-21T10:17:15;102839.69;;;-3.52;100.00
66703;BME280;60933;46.398;-63.798;2023-11-21T10:19:46;102842.81;;;-3.56;100.00
66703;BME280;60933;46.398;-63.798;2023-11-21T10:22:15;102854.44;;;-3.58;100.00
66703;BME280;60933;46.398;-63.798;2023-11-21T10:24:41;102853.50;;;-3.60;100.00
66703;BME280;60933;46.398;-63.798;2023-11-21T10:27:09;102856.66;;;-3.63;100.00
66703;BME280;60933;46.398;-63.798;2023-11-21T10:29:35;102862.38;;;-3.66;100.00
66703;BME280;60933;46.398;-63.798;2023-11-21T10:32:04;102869.75;;;-3.69;100.00
66703;BME280;60933;46.398;-63.798;2023-11-21T10:34:31;102862.84;;;-3.71;100.00
66703;BME280;60933;46.398;-63.798;2023-11-21T10:36:57;102871.84;;;-3.75;100.00
66703;BME280;60933;46.398;-63.798;2023-11-21T10:39:24;102875.03;;;-3.77;100.00
66703;BME280;60933;46.398;-63.798;2023-11-21T10:41:56;102880.00;;;-3.79;100.00
66703;BME280;60933;46.398;-63.798;2023-11-21T10:44:22;102881.75;;;-3.78;100.00
66703;BME280;60933;46.398;-63.798;2023-11-21T10:46:53;102886.13;;;-3.75;100.00
66703;BME280;60933;46.398;-63.798;2023-11-21T10:49:24;102879.53;;;-3.73;100.00
66703;BME280;60933;46.398;-63.798;2023-11-21T10:51:52;102896.63;;;-3.69;100.00
66703;BME280;60933;46.398;-63.798;2023-11-21T10:54:25;102906.97;;;-3.66;100.00
66703;BME280;60933;46.398;-63.798;2023-11-21T10:57:00;102896.97;;;-3.64;100.00
66703;BME280;60933;46.398;-63.798;2023-11-21T10:59:30;102904.75;;;-3.61;100.00
66703;BME280;60933;46.398;-63.798;2023-11-21T11:01:58;102893.75;;;-3.62;100.00
66703;BME280;60933;46.398;-63.798;2023-11-21T11:04:27;102894.66;;;-3.61;100.00
66703;BME280;60933;46.398;-63.798;2023-11-21T11:07:03;102890.16;;;-3.66;100.00
66703;BME280;60933;46.398;-63.798;2023-11-21T11:09:31;102897.28;;;-3.60;100.00
66703;BME280;60933;46.398;-63.798;2023-11-21T11:12:02;102886.84;;;-3.64;100.00
66703;BME280;60933;46.398;-63.798;2023-11-21T11:14:30;102905.47;;;-3.51;100.00
66703;BME280;60933;46.398;-63.798;2023-11-21T11:16:58;102898.66;;;-3.52;100.00
66703;BME280;60933;46.398;-63.798;2023-11-21T11:19:25;102901.69;;;-3.44;100.00
66703;BME280;60933;46.398;-63.798;2023-11-21T11:33:23;102937.13;;;-3.30;100.00
66703;BME280;60933;46.398;-63.798;2023-11-21T11:38:45;102932.94;;;-3.30;100.00
66703;BME280;60933;46.398;-63.798;2023-11-21T11:41:12;102944.81;;;-3.29;100.00
66703;BME280;60933;46.398;-63.798;2023-11-21T11:43:38;102944.72;;;-3.30;100.00
66703;BME280;60933;46.398;-63.798;2023-11-21T11:46:11;102945.88;;;-3.25;100.00
66703;BME280;60933;46.398;-63.798;2023-11-21T11:48:40;102949.41;;;-3.23;100.00
66703;BME280;60933;46.398;-63.798;2023-11-21T11:51:10;102946.88;;;-3.23;100.00
66703;BME280;60933;46.398;-63.798;2023-11-21T11:53:43;102949.59;;;-3.20;100.00
66703;BME280;60933;46.398;-63.798;2023-11-21T11:56:29;102949.72;;;-3.19;100.00
66703;BME280;60933;46.398;-63.798;2023-11-21T11:59:01;102952.13;;;-3.20;100.00
66703;BME280;60933;46.398;-63.798;2023-11-21T12:01:35;102961.78;;;-3.14;100.00
66703;BME280;60933;46.398;-63.798;2023-11-21T12:06:46;102975.88;;;-3.05;100.00
66703;BME280;60933;46.398;-63.798;2023-11-21T12:09:26;102981.16;;;-3.02;100.00
66703;BME280;60933;46.398;-63.798;2023-11-21T12:11:53;102990.81;;;-2.96;100.00
66703;BME280;60933;46.398;-63.798;2023-11-21T12:14:22;102990.91;;;-2.94;100.00
66703;BME280;60933;46.398;-63.798;2023-11-21T12:16:49;102985.84;;;-2.94;100.00
66703;BME280;60933;46.398;-63.798;2023-11-21T12:19:15;102981.41;;;-2.85;100.00
66703;BME280;60933;46.398;-63.798;2023-11-21T12:21:41;102977.53;;;-2.80;100.00
66703;BME280;60933;46.398;-63.798;2023-11-21T12:24:08;102986.41;;;-2.73;100.00
66703;BME280;60933;46.398;-63.798;2023-11-21T12:26:40;102990.00;;;-2.69;100.00
66703;BME280;60933;46.398;-63.798;2023-11-21T12:29:06;102999.75;;;-2.62;100.00
66703;BME280;60933;46.398;-63.798;2023-11-21T12:31:34;103012.88;;;-2.55;100.00
66703;BME280;60933;46.398;-63.798;2023-11-21T12:34:03;103001.53;;;-2.48;100.00
66703;BME280;60933;46.398;-63.798;2023-11-21T12:36:30;103001.91;;;-2.42;100.00
66703;BME280;60933;46.398;-63.798;2023-11-21T12:38:56;103009.13;;;-2.34;100.00
66703;BME280;60933;46.398;-63.798;2023-11-21T12:41:22;103011.19;;;-2.29;100.00
66703;BME280;60933;46.398;-63.798;2023-11-21T12:43:48;103012.25;;;-2.25;100.00